createdAt,value
2018-12-25T00:00:45.061Z,91
2018-12-25T00:01:45.063Z,91
2018-12-25T00:02:45.422Z,91
2018-12-25T00:03:44.910Z,91
2018-12-25T00:04:45.580Z,91
2018-12-25T00:05:45.387Z,91
2018-12-25T00:06:45.145Z,91
2018-12-25T00:07:45.073Z,91
2018-12-25T00:08:45.122Z,91
2018-12-25T00:09:45.051Z,91
2018-12-25T00:10:45.104Z,91
2018-12-25T00:11:45.041Z,91
2018-12-25T00:12:45.123Z,91
2018-12-25T00:13:45.164Z,91
2018-12-25T00:14:45.352Z,91
2018-12-25T00:15:45.311Z,91
2018-12-25T00:16:45.129Z,91
2018-12-25T00:17:45.131Z,91
2018-12-25T00:18:44.871Z,91
2018-12-25T00:19:45.133Z,91
2018-12-25T00:20:45.404Z,91
2018-12-25T00:21:44.949Z,91
2018-12-25T00:22:45.172Z,91
2018-12-25T00:23:45.118Z,91
2018-12-25T00:24:45.418Z,91
2018-12-25T00:25:45.123Z,91
2018-12-25T00:26:45.496Z,91
2018-12-25T00:27:45.468Z,91
2018-12-25T00:28:45.733Z,91
2018-12-25T00:29:44.986Z,91
2018-12-25T00:30:45.413Z,91
2018-12-25T00:31:44.944Z,91
2018-12-25T00:32:45.171Z,92
2018-12-25T00:33:45.145Z,92
2018-12-25T00:34:45.199Z,92
2018-12-25T00:35:45.115Z,92
2018-12-25T00:36:45.336Z,92
2018-12-25T00:37:45.206Z,92
2018-12-25T00:38:45.498Z,92
2018-12-25T00:39:45.212Z,92
2018-12-25T00:40:45.100Z,92
2018-12-25T00:41:44.981Z,92
2018-12-25T00:42:45.400Z,93
2018-12-25T00:43:45.370Z,93
2018-12-25T00:44:45.241Z,93
2018-12-25T00:45:44.922Z,93
2018-12-25T00:46:45.382Z,93
2018-12-25T00:47:44.947Z,93
2018-12-25T00:48:45.771Z,93
2018-12-25T00:49:45.443Z,93
2018-12-25T00:50:45.452Z,93
2018-12-25T00:51:45.215Z,93
2018-12-25T00:52:45.157Z,93
2018-12-25T00:53:45.416Z,93
2018-12-25T00:54:45.543Z,93
2018-12-25T00:55:45.204Z,93
2018-12-25T00:56:45.148Z,93
2018-12-25T00:57:45.134Z,93
2018-12-25T00:58:45.411Z,93
2018-12-25T00:59:45.206Z,93
2018-12-25T01:00:45.299Z,93
2018-12-25T01:01:45.203Z,93
2018-12-25T01:02:45.018Z,93
2018-12-25T01:03:45.483Z,93
2018-12-25T01:04:45.505Z,93
2018-12-25T01:05:45.253Z,93
2018-12-25T01:06:45.074Z,93
2018-12-25T01:07:45.229Z,93
2018-12-25T01:08:45.040Z,94
2018-12-25T01:09:45.285Z,94
2018-12-25T01:10:45.573Z,94
2018-12-25T01:11:45.264Z,94
2018-12-25T01:12:45.438Z,94
2018-12-25T01:13:45.074Z,94
2018-12-25T01:14:45.268Z,94
2018-12-25T01:15:45.017Z,94
2018-12-25T01:16:45.056Z,94
2018-12-25T01:17:45.004Z,94
2018-12-25T01:18:45.223Z,94
2018-12-25T01:19:45.257Z,94
2018-12-25T01:20:45.224Z,94
2018-12-25T01:21:45.488Z,94
2018-12-25T01:22:45.019Z,94
2018-12-25T01:23:45.249Z,94
2018-12-25T01:24:45.250Z,94
2018-12-25T01:25:45.497Z,94
2018-12-25T01:26:45.249Z,94
2018-12-25T01:27:45.282Z,94
2018-12-25T01:28:45.253Z,94
2018-12-25T01:29:45.213Z,94
2018-12-25T01:30:45.056Z,95
2018-12-25T01:31:45.289Z,95
2018-12-25T01:32:45.475Z,95
2018-12-25T01:33:45.071Z,95
2018-12-25T01:34:45.470Z,95
2018-12-25T01:35:45.069Z,95
2018-12-25T01:36:45.260Z,95
2018-12-25T01:37:45.243Z,95
2018-12-25T01:38:47.403Z,95
2018-12-25T01:39:45.502Z,95
2018-12-25T01:40:45.231Z,95
2018-12-25T01:41:45.323Z,95
2018-12-25T01:42:45.072Z,95
2018-12-25T01:43:45.203Z,95
2018-12-25T01:44:45.563Z,95
2018-12-25T01:45:45.257Z,95
2018-12-25T01:46:45.059Z,95
2018-12-25T01:47:45.260Z,95
2018-12-25T01:48:45.276Z,96
2018-12-25T01:49:45.243Z,96
2018-12-25T01:50:45.327Z,96
2018-12-25T01:51:45.303Z,96
2018-12-25T01:52:45.253Z,96
2018-12-25T01:53:45.291Z,95
2018-12-25T01:54:45.106Z,95
2018-12-25T01:55:45.556Z,95
2018-12-25T01:56:45.313Z,96
2018-12-25T01:57:45.313Z,96
2018-12-25T01:58:45.502Z,96
2018-12-25T01:59:45.461Z,96
2018-12-25T02:00:45.332Z,96
2018-12-25T02:01:45.572Z,96
2018-12-25T02:02:45.332Z,96
2018-12-25T02:03:45.522Z,96
2018-12-25T02:04:47.794Z,96
2018-12-25T02:05:45.565Z,96
2018-12-25T02:06:45.333Z,96
2018-12-25T02:07:45.339Z,96
2018-12-25T02:08:45.127Z,96
2018-12-25T02:09:45.330Z,96
2018-12-25T02:10:45.646Z,96
2018-12-25T02:11:45.590Z,96
2018-12-25T02:12:45.522Z,96
2018-12-25T02:13:45.407Z,96
2018-12-25T02:14:45.307Z,96
2018-12-25T02:15:45.569Z,96
2018-12-25T02:16:45.585Z,96
2018-12-25T02:17:45.575Z,96
2018-12-25T02:18:45.574Z,96
2018-12-25T02:19:45.186Z,96
2018-12-25T02:20:45.150Z,96
2018-12-25T02:21:45.180Z,96
2018-12-25T02:22:46.614Z,96
2018-12-25T02:23:45.342Z,96
2018-12-25T02:24:45.348Z,96
2018-12-25T02:25:45.155Z,96
2018-12-25T02:26:45.607Z,96
2018-12-25T02:27:45.392Z,96
2018-12-25T02:28:45.447Z,96
2018-12-25T02:29:45.565Z,96
2018-12-25T02:30:45.576Z,96
2018-12-25T02:31:45.687Z,96
2018-12-25T02:32:45.470Z,96
2018-12-25T02:33:45.513Z,96
2018-12-25T02:34:45.398Z,96
2018-12-25T02:35:45.495Z,96
2018-12-25T02:36:45.216Z,96
2018-12-25T02:37:45.387Z,96
2018-12-25T02:38:45.206Z,96
2018-12-25T02:39:45.410Z,96
2018-12-25T02:40:45.988Z,96
2018-12-25T02:41:45.360Z,96
2018-12-25T02:42:45.193Z,97
2018-12-25T02:43:45.398Z,97
2018-12-25T02:44:45.192Z,96
2018-12-25T02:45:45.392Z,96
2018-12-25T02:46:45.413Z,96
2018-12-25T02:47:45.155Z,96
2018-12-25T02:48:45.408Z,96
2018-12-25T02:49:50.023Z,97
2018-12-25T02:50:45.611Z,97
2018-12-25T02:51:45.187Z,97
2018-12-25T02:52:45.450Z,96
2018-12-25T02:53:45.409Z,96
2018-12-25T02:54:45.633Z,96
2018-12-25T02:55:45.644Z,96
2018-12-25T02:56:45.606Z,96
2018-12-25T02:57:45.673Z,97
2018-12-25T02:58:45.383Z,97
2018-12-25T02:59:45.232Z,97
2018-12-25T03:00:46.507Z,97
2018-12-25T03:01:45.454Z,97
2018-12-25T03:02:45.252Z,97
2018-12-25T03:03:45.409Z,97
2018-12-25T03:04:45.595Z,97
2018-12-25T03:05:45.412Z,97
2018-12-25T03:06:45.393Z,97
2018-12-25T03:07:45.453Z,97
2018-12-25T03:08:45.630Z,97
2018-12-25T03:09:45.703Z,97
2018-12-25T03:10:45.702Z,97
2018-12-25T03:11:45.415Z,97
2018-12-25T03:12:45.466Z,97
2018-12-25T03:13:45.264Z,97
2018-12-25T03:14:45.278Z,97
2018-12-25T03:15:45.441Z,97
2018-12-25T03:16:45.424Z,97
2018-12-25T03:17:45.257Z,97
2018-12-25T03:18:46.229Z,97
2018-12-25T03:19:45.432Z,97
2018-12-25T03:20:45.675Z,97
2018-12-25T03:21:45.256Z,97
2018-12-25T03:22:45.698Z,97
2018-12-25T03:23:45.704Z,97
2018-12-25T03:24:45.540Z,97
2018-12-25T03:25:45.474Z,97
2018-12-25T03:26:45.224Z,97
2018-12-25T03:27:45.752Z,97
2018-12-25T03:28:45.562Z,97
2018-12-25T03:29:45.559Z,97
2018-12-25T03:30:45.491Z,97
2018-12-25T03:31:45.749Z,97
2018-12-25T03:32:45.326Z,97
2018-12-25T03:33:45.767Z,97
2018-12-25T03:34:45.744Z,97
2018-12-25T03:35:45.252Z,97
2018-12-25T03:36:45.693Z,97
2018-12-25T03:37:45.453Z,97
2018-12-25T03:38:45.292Z,97
2018-12-25T03:39:45.696Z,97
2018-12-25T03:40:45.450Z,97
2018-12-25T03:41:45.448Z,97
2018-12-25T03:42:45.447Z,97
2018-12-25T03:43:45.582Z,97
2018-12-25T03:44:45.490Z,97
2018-12-25T03:45:45.434Z,97
2018-12-25T03:46:45.533Z,97
2018-12-25T03:47:45.723Z,97
2018-12-25T03:48:45.510Z,97
2018-12-25T03:49:45.741Z,97
2018-12-25T03:50:45.482Z,97
2018-12-25T03:51:45.545Z,97
2018-12-25T03:52:45.759Z,97
2018-12-25T03:53:45.804Z,97
2018-12-25T03:54:45.610Z,97
2018-12-25T03:55:45.397Z,97
2018-12-25T03:56:45.641Z,97
2018-12-25T03:57:45.624Z,97
2018-12-25T03:58:45.806Z,97
2018-12-25T03:59:45.683Z,97
2018-12-25T04:00:45.608Z,97
2018-12-25T04:01:45.778Z,97
2018-12-25T04:02:45.580Z,97
2018-12-25T04:03:45.368Z,97
2018-12-25T04:04:45.638Z,97
2018-12-25T04:05:45.745Z,97
2018-12-25T04:06:45.441Z,96
2018-12-25T04:07:45.781Z,96
2018-12-25T04:08:45.798Z,96
2018-12-25T04:09:45.684Z,96
2018-12-25T04:10:45.380Z,96
2018-12-25T04:11:45.555Z,97
2018-12-25T04:12:45.604Z,97
2018-12-25T04:13:45.579Z,96
2018-12-25T04:14:45.680Z,96
2018-12-25T04:15:45.593Z,96
2018-12-25T04:16:45.870Z,96
2018-12-25T04:17:45.385Z,96
2018-12-25T04:18:45.676Z,97
2018-12-25T04:19:45.560Z,97
2018-12-25T04:20:45.644Z,97
2018-12-25T04:21:45.645Z,97
2018-12-25T04:22:45.837Z,97
2018-12-25T04:23:45.391Z,96
2018-12-25T04:24:45.644Z,96
2018-12-25T04:25:45.604Z,96
2018-12-25T04:26:45.617Z,97
2018-12-25T04:27:45.408Z,97
2018-12-25T04:28:45.395Z,97
2018-12-25T04:29:45.623Z,97
2018-12-25T04:30:45.811Z,97
2018-12-25T04:31:45.846Z,97
2018-12-25T04:32:45.708Z,97
2018-12-25T04:33:45.411Z,97
2018-12-25T04:34:45.802Z,97
2018-12-25T04:35:45.825Z,97
2018-12-25T04:36:45.563Z,97
2018-12-25T04:37:45.835Z,97
2018-12-25T04:38:45.569Z,97
2018-12-25T04:39:45.377Z,97
2018-12-25T04:40:45.652Z,97
2018-12-25T04:41:45.817Z,97
2018-12-25T04:42:45.622Z,97
2018-12-25T04:43:45.677Z,97
2018-12-25T04:44:45.556Z,97
2018-12-25T04:45:45.419Z,97
2018-12-25T04:46:45.595Z,97
2018-12-25T04:47:45.383Z,97
2018-12-25T04:48:45.385Z,97
2018-12-25T04:49:45.887Z,97
2018-12-25T04:50:45.842Z,97
2018-12-25T04:51:45.607Z,97
2018-12-25T04:52:45.657Z,97
2018-12-25T04:53:45.600Z,97
2018-12-25T04:54:45.498Z,97
2018-12-25T04:55:45.653Z,97
2018-12-25T04:56:45.635Z,97
2018-12-25T04:57:45.387Z,97
2018-12-25T04:58:45.745Z,97
2018-12-25T04:59:45.638Z,97
2018-12-25T05:00:45.891Z,97
2018-12-25T05:01:45.656Z,97
2018-12-25T05:02:45.674Z,97
2018-12-25T05:03:45.869Z,97
2018-12-25T05:04:45.411Z,97
2018-12-25T05:05:45.625Z,97
2018-12-25T05:06:45.646Z,97
2018-12-25T05:07:45.899Z,97
2018-12-25T05:08:46.490Z,97
2018-12-25T05:09:45.418Z,97
2018-12-25T05:10:45.440Z,97
2018-12-25T05:11:45.931Z,97
2018-12-25T05:12:45.683Z,97
2018-12-25T05:13:45.617Z,97
2018-12-25T05:14:45.848Z,97
2018-12-25T05:15:45.641Z,97
2018-12-25T05:16:45.480Z,97
2018-12-25T05:17:45.930Z,97
2018-12-25T05:18:45.597Z,97
2018-12-25T05:19:45.452Z,97
2018-12-25T05:20:45.685Z,97
2018-12-25T05:21:45.636Z,97
2018-12-25T05:22:45.918Z,97
2018-12-25T05:23:45.642Z,97
2018-12-25T05:24:45.942Z,97
2018-12-25T05:25:45.470Z,97
2018-12-25T05:26:45.429Z,97
2018-12-25T05:27:45.926Z,97
2018-12-25T05:28:45.632Z,97
2018-12-25T05:29:45.941Z,97
2018-12-25T05:30:45.504Z,97
2018-12-25T05:31:45.663Z,97
2018-12-25T05:32:45.526Z,97
2018-12-25T05:33:45.959Z,97
2018-12-25T05:34:45.630Z,97
2018-12-25T05:35:45.684Z,97
2018-12-25T05:36:45.657Z,97
2018-12-25T05:37:45.940Z,97
2018-12-25T05:38:45.457Z,97
2018-12-25T05:39:45.916Z,97
2018-12-25T05:40:45.724Z,97
2018-12-25T05:41:45.734Z,97
2018-12-25T05:42:45.721Z,97
2018-12-25T05:43:45.851Z,97
2018-12-25T05:44:46.447Z,97
2018-12-25T05:45:45.524Z,97
2018-12-25T05:46:45.789Z,97
2018-12-25T05:47:45.653Z,97
2018-12-25T05:48:45.476Z,97
2018-12-25T05:49:45.545Z,97
2018-12-25T05:50:46.630Z,97
2018-12-25T05:51:45.924Z,97
2018-12-25T05:52:45.931Z,97
2018-12-25T05:53:45.704Z,97
2018-12-25T05:54:45.719Z,97
2018-12-25T05:55:45.728Z,97
2018-12-25T05:56:45.531Z,97
2018-12-25T05:57:46.003Z,97
2018-12-25T05:58:45.749Z,97
2018-12-25T05:59:45.772Z,97
2018-12-25T06:00:45.988Z,97
2018-12-25T06:01:45.820Z,97
2018-12-25T06:02:45.685Z,97
2018-12-25T06:03:46.578Z,97
2018-12-25T06:04:45.707Z,97
2018-12-25T06:05:45.560Z,97
2018-12-25T06:06:45.737Z,97
2018-12-25T06:07:45.717Z,97
2018-12-25T06:08:45.801Z,98
2018-12-25T06:09:46.013Z,98
2018-12-25T06:10:45.977Z,98
2018-12-25T06:11:45.981Z,98
2018-12-25T06:12:46.003Z,98
2018-12-25T06:13:45.774Z,98
2018-12-25T06:14:45.595Z,98
2018-12-25T06:15:45.817Z,98
2018-12-25T06:16:45.756Z,98
2018-12-25T06:17:45.553Z,98
2018-12-25T06:18:45.838Z,98
2018-12-25T06:20:22.332Z,98
2018-12-25T06:21:22.186Z,98
2018-12-25T06:22:22.142Z,98
2018-12-25T06:23:22.355Z,98
2018-12-25T06:24:22.359Z,98
2018-12-25T06:25:22.518Z,98
2018-12-25T06:26:22.300Z,98
2018-12-25T06:27:22.354Z,98
2018-12-25T06:28:22.197Z,98
2018-12-25T06:29:22.358Z,98
2018-12-25T06:30:22.371Z,98
2018-12-25T06:31:22.251Z,98
2018-12-25T06:32:22.619Z,98
2018-12-25T06:33:22.382Z,98
2018-12-25T06:34:22.340Z,98
2018-12-25T06:35:22.434Z,98
2018-12-25T06:36:22.614Z,98
2018-12-25T06:37:22.436Z,98
2018-12-25T06:38:22.608Z,98
2018-12-25T06:39:22.148Z,98
2018-12-25T06:40:22.427Z,98
2018-12-25T06:41:23.066Z,98
2018-12-25T06:42:22.321Z,98
2018-12-25T06:43:22.392Z,98
2018-12-25T06:44:22.653Z,98
2018-12-25T06:45:23.278Z,98
2018-12-25T06:46:22.357Z,98
2018-12-25T06:47:22.689Z,98
2018-12-25T06:48:22.177Z,98
2018-12-25T06:49:22.448Z,98
2018-12-25T06:50:22.393Z,98
2018-12-25T06:51:22.433Z,98
2018-12-25T06:52:22.179Z,98
2018-12-25T06:53:22.431Z,98
2018-12-25T06:54:22.647Z,98
2018-12-25T06:55:22.320Z,98
2018-12-25T06:56:22.206Z,98
2018-12-25T06:57:22.682Z,98
2018-12-25T06:58:22.427Z,98
2018-12-25T06:59:22.272Z,98
2018-12-25T07:00:22.226Z,98
2018-12-25T07:01:22.473Z,98
2018-12-25T07:02:22.214Z,98
2018-12-25T07:03:22.921Z,98
2018-12-25T07:04:22.640Z,98
2018-12-25T07:05:22.284Z,98
2018-12-25T07:06:22.693Z,98
2018-12-25T07:07:23.332Z,98
2018-12-25T07:08:22.668Z,98
2018-12-25T07:09:22.465Z,98
2018-12-25T07:10:22.533Z,98
2018-12-25T07:11:23.729Z,98
2018-12-25T07:12:22.294Z,98
2018-12-25T07:13:22.273Z,98
2018-12-25T07:14:22.478Z,98
2018-12-25T07:15:22.260Z,98
2018-12-25T07:16:22.645Z,98
2018-12-25T07:17:22.271Z,98
2018-12-25T07:18:22.255Z,98
2018-12-25T07:19:22.457Z,98
2018-12-25T07:20:22.621Z,98
2018-12-25T07:21:22.454Z,98
2018-12-25T07:22:22.466Z,98
2018-12-25T07:23:22.745Z,98
2018-12-25T07:24:22.442Z,98
2018-12-25T07:25:22.576Z,98
2018-12-25T07:26:22.409Z,98
2018-12-25T07:27:22.269Z,98
2018-12-25T07:28:22.514Z,98
2018-12-25T07:29:22.447Z,98
2018-12-25T07:30:22.293Z,98
2018-12-25T07:31:22.275Z,98
2018-12-25T07:32:22.432Z,98
2018-12-25T07:33:22.507Z,98
2018-12-25T07:34:22.453Z,98
2018-12-25T07:35:22.722Z,98
2018-12-25T07:36:22.438Z,98
2018-12-25T07:37:22.289Z,98
2018-12-25T07:38:22.712Z,98
2018-12-25T07:39:22.790Z,98
2018-12-25T07:40:22.554Z,98
2018-12-25T07:41:22.284Z,98
2018-12-25T07:42:22.289Z,98
2018-12-25T07:43:22.552Z,98
2018-12-25T07:44:22.676Z,98
2018-12-25T07:45:22.752Z,98
2018-12-25T07:46:22.726Z,98
2018-12-25T07:47:22.312Z,98
2018-12-25T07:48:22.568Z,98
2018-12-25T07:49:22.361Z,98
2018-12-25T07:50:22.557Z,98
2018-12-25T07:51:22.563Z,98
2018-12-25T07:52:22.508Z,98
2018-12-25T07:53:22.551Z,98
2018-12-25T07:54:22.509Z,98
2018-12-25T07:55:22.467Z,98
2018-12-25T07:56:22.768Z,98
2018-12-25T07:57:22.580Z,98
2018-12-25T07:58:22.542Z,98
2018-12-25T07:59:22.508Z,98
2018-12-25T08:00:22.796Z,98
2018-12-25T08:01:22.588Z,98
2018-12-25T08:02:22.741Z,98
2018-12-25T08:03:22.348Z,98
2018-12-25T08:04:22.329Z,98
2018-12-25T08:05:22.525Z,98
2018-12-25T08:06:22.762Z,98
2018-12-25T08:07:22.762Z,98
2018-12-25T08:08:22.534Z,98
2018-12-25T08:09:22.572Z,98
2018-12-25T08:10:22.593Z,97
2018-12-25T08:11:22.547Z,97
2018-12-25T08:12:22.503Z,98
2018-12-25T08:13:22.522Z,98
2018-12-25T08:14:22.559Z,98
2018-12-25T08:15:23.527Z,97
2018-12-25T08:16:22.653Z,97
2018-12-25T08:17:31.449Z,97
2018-12-25T08:18:23.740Z,97
2018-12-25T08:19:24.639Z,97
2018-12-25T08:20:22.388Z,97
2018-12-25T08:21:29.055Z,97
2018-12-25T08:22:22.633Z,97
2018-12-25T08:23:22.885Z,97
2018-12-25T08:24:22.364Z,97
2018-12-25T08:25:22.891Z,97
2018-12-25T08:26:22.826Z,97
2018-12-25T08:27:22.829Z,97
2018-12-25T08:28:22.664Z,97
2018-12-25T08:29:22.425Z,97
2018-12-25T08:30:22.616Z,97
2018-12-25T08:31:22.447Z,97
2018-12-25T08:32:22.615Z,97
2018-12-25T08:33:22.633Z,97
2018-12-25T08:34:22.589Z,97
2018-12-25T08:35:22.602Z,97
2018-12-25T08:36:22.605Z,97
2018-12-25T08:37:22.836Z,97
2018-12-25T08:38:22.549Z,97
2018-12-25T08:39:22.629Z,97
2018-12-25T08:40:22.673Z,97
2018-12-25T08:41:22.403Z,97
2018-12-25T08:42:22.624Z,97
2018-12-25T08:43:22.816Z,97
2018-12-25T08:44:22.819Z,97
2018-12-25T08:45:22.600Z,97
2018-12-25T08:46:22.567Z,97
2018-12-25T08:47:22.860Z,97
2018-12-25T08:48:23.245Z,97
2018-12-25T08:49:22.863Z,97
2018-12-25T08:50:23.516Z,97
2018-12-25T08:51:23.253Z,97
2018-12-25T08:52:23.513Z,97
2018-12-25T08:53:22.565Z,97
2018-12-25T08:54:22.481Z,97
2018-12-25T08:55:22.570Z,97
2018-12-25T08:56:22.834Z,97
2018-12-25T08:57:22.586Z,97
2018-12-25T08:58:23.428Z,97
2018-12-25T08:59:22.591Z,97
2018-12-25T09:00:22.420Z,97
2018-12-25T09:01:22.627Z,97
2018-12-25T09:02:22.839Z,97
2018-12-25T09:03:22.634Z,97
2018-12-25T09:04:22.893Z,97
2018-12-25T09:05:22.618Z,97
2018-12-25T09:06:22.617Z,97
2018-12-25T09:07:22.639Z,97
2018-12-25T09:08:22.840Z,97
2018-12-25T09:09:22.631Z,97
2018-12-25T09:10:22.876Z,97
2018-12-25T09:11:22.463Z,97
2018-12-25T09:12:22.649Z,97
2018-12-25T09:13:22.870Z,97
2018-12-25T09:14:22.634Z,97
2018-12-25T09:15:22.619Z,97
2018-12-25T09:16:22.677Z,97
2018-12-25T09:17:22.468Z,97
2018-12-25T09:18:22.874Z,97
2018-12-25T09:19:22.786Z,97
2018-12-25T09:20:22.952Z,97
2018-12-25T09:21:22.718Z,97
2018-12-25T09:22:22.482Z,97
2018-12-25T09:23:22.734Z,97
2018-12-25T09:24:22.709Z,97
2018-12-25T09:25:22.843Z,97
2018-12-25T09:26:22.751Z,96
2018-12-25T09:27:22.719Z,96
2018-12-25T09:28:22.788Z,96
2018-12-25T09:29:22.709Z,96
2018-12-25T09:30:22.949Z,96
2018-12-25T09:31:22.548Z,96
2018-12-25T09:32:22.703Z,96
2018-12-25T09:33:22.717Z,96
2018-12-25T09:34:22.705Z,96
2018-12-25T09:35:22.989Z,96
2018-12-25T09:36:22.699Z,96
2018-12-25T09:37:22.711Z,96
2018-12-25T09:38:22.987Z,96
2018-12-25T09:39:22.565Z,96
2018-12-25T09:40:22.892Z,96
2018-12-25T09:41:22.748Z,96
2018-12-25T09:42:22.739Z,96
2018-12-25T09:43:22.729Z,96
2018-12-25T09:44:22.747Z,96
2018-12-25T09:45:22.974Z,96
2018-12-25T09:46:22.590Z,96
2018-12-25T09:47:22.815Z,96
2018-12-25T09:48:22.785Z,96
2018-12-25T09:49:22.752Z,96
2018-12-25T09:50:23.002Z,96
2018-12-25T09:51:22.833Z,96
2018-12-25T09:52:22.807Z,95
2018-12-25T09:53:22.760Z,95
2018-12-25T09:54:22.588Z,95
2018-12-25T09:55:22.800Z,95
2018-12-25T09:56:22.810Z,95
2018-12-25T09:57:22.770Z,95
2018-12-25T09:58:23.024Z,95
2018-12-25T09:59:22.985Z,95
2018-12-25T10:00:22.971Z,95
2018-12-25T10:01:22.985Z,95
2018-12-25T10:02:22.985Z,95
2018-12-25T10:03:22.972Z,95
2018-12-25T10:04:22.562Z,95
2018-12-25T10:05:22.608Z,95
2018-12-25T10:06:22.803Z,95
2018-12-25T10:07:23.276Z,95
2018-12-25T10:08:22.554Z,95
2018-12-25T10:09:22.797Z,95
2018-12-25T10:10:22.769Z,95
2018-12-25T10:11:23.720Z,95
2018-12-25T10:12:22.792Z,95
2018-12-25T10:13:22.998Z,95
2018-12-25T10:14:22.631Z,95
2018-12-25T10:15:22.797Z,95
2018-12-25T10:16:22.842Z,95
2018-12-25T10:17:22.838Z,95
2018-12-25T10:18:22.791Z,95
2018-12-25T10:19:22.825Z,95
2018-12-25T10:20:22.752Z,95
2018-12-25T10:21:22.988Z,95
2018-12-25T10:22:23.017Z,95
2018-12-25T10:23:22.813Z,95
2018-12-25T10:24:22.753Z,95
2018-12-25T10:25:22.673Z,95
2018-12-25T10:26:22.798Z,95
2018-12-25T10:27:22.731Z,95
2018-12-25T10:28:22.790Z,95
2018-12-25T10:29:22.784Z,95
2018-12-25T10:30:23.005Z,95
2018-12-25T10:31:23.034Z,95
2018-12-25T10:32:23.029Z,95
2018-12-25T10:33:22.646Z,95
2018-12-25T10:34:22.750Z,95
2018-12-25T10:35:22.562Z,95
2018-12-25T10:36:22.587Z,95
2018-12-25T10:37:22.575Z,95
2018-12-25T10:38:23.007Z,95
2018-12-25T10:39:22.735Z,95
2018-12-25T10:40:22.884Z,95
2018-12-25T10:41:22.848Z,95
2018-12-25T10:42:22.804Z,95
2018-12-25T10:43:22.735Z,95
2018-12-25T10:44:22.785Z,95
2018-12-25T10:45:22.838Z,95
2018-12-25T10:46:22.755Z,95
2018-12-25T10:47:22.854Z,95
2018-12-25T10:48:22.903Z,95
2018-12-25T10:49:22.695Z,95
2018-12-25T10:50:22.729Z,95
2018-12-25T10:51:22.808Z,95
2018-12-25T10:52:23.045Z,95
2018-12-25T10:53:22.890Z,95
2018-12-25T10:54:22.857Z,95
2018-12-25T10:55:22.835Z,94
2018-12-25T10:56:23.084Z,94
2018-12-25T10:57:22.673Z,94
2018-12-25T10:58:23.109Z,94
2018-12-25T10:59:22.912Z,94
2018-12-25T11:00:22.938Z,94
2018-12-25T11:01:22.869Z,94
2018-12-25T11:02:22.836Z,94
2018-12-25T11:03:22.859Z,94
2018-12-25T11:04:22.862Z,94
2018-12-25T11:05:22.853Z,94
2018-12-25T11:06:22.826Z,94
2018-12-25T11:07:23.102Z,94
2018-12-25T11:08:23.130Z,93
2018-12-25T11:09:23.022Z,93
2018-12-25T11:10:23.159Z,93
2018-12-25T11:11:23.121Z,93
2018-12-25T11:12:23.316Z,93
2018-12-25T11:13:22.844Z,93
2018-12-25T11:14:22.976Z,93
2018-12-25T11:15:23.343Z,93
2018-12-25T11:16:23.144Z,93
2018-12-25T11:17:23.136Z,93
2018-12-25T11:18:22.921Z,93
2018-12-25T11:19:22.692Z,93
2018-12-25T11:20:22.872Z,93
2018-12-25T11:21:23.561Z,92
2018-12-25T11:22:23.667Z,92
2018-12-25T11:23:22.707Z,92
2018-12-25T11:24:22.934Z,92
2018-12-25T11:25:22.710Z,92
2018-12-25T11:26:22.860Z,93
2018-12-25T11:27:23.098Z,93
2018-12-25T11:28:23.104Z,93
2018-12-25T11:29:22.722Z,93
2018-12-25T11:30:22.738Z,93
2018-12-25T11:31:23.209Z,93
2018-12-25T11:32:23.132Z,93
2018-12-25T11:33:23.060Z,93
2018-12-25T11:34:22.963Z,93
2018-12-25T11:35:22.950Z,93
2018-12-25T11:36:23.181Z,92
2018-12-25T11:37:22.967Z,92
2018-12-25T11:38:22.728Z,92
2018-12-25T11:39:22.993Z,92
2018-12-25T11:40:23.071Z,92
2018-12-25T11:41:22.749Z,92
2018-12-25T11:42:23.252Z,92
2018-12-25T11:43:22.960Z,92
2018-12-25T11:44:22.951Z,92
2018-12-25T11:45:22.893Z,92
2018-12-25T11:46:23.924Z,91
2018-12-25T11:47:23.005Z,91
2018-12-25T11:48:22.919Z,91
2018-12-25T11:49:22.907Z,91
2018-12-25T11:50:22.924Z,91
2018-12-25T11:51:22.942Z,91
2018-12-25T11:52:28.231Z,91
2018-12-25T11:53:22.829Z,91
2018-12-25T11:54:22.993Z,91
2018-12-25T11:55:22.930Z,91
2018-12-25T11:56:23.163Z,91
2018-12-25T11:57:22.804Z,91
2018-12-25T11:58:23.245Z,91
2018-12-25T11:59:22.979Z,91
2018-12-25T12:00:23.446Z,91
2018-12-25T12:01:22.972Z,91
2018-12-25T12:02:22.809Z,91
2018-12-25T12:03:22.787Z,91
2018-12-25T12:04:23.229Z,91
2018-12-25T12:05:22.942Z,91
2018-12-25T12:06:22.944Z,91
2018-12-25T12:07:22.763Z,91
2018-12-25T12:08:22.961Z,91
2018-12-25T12:09:22.789Z,90
2018-12-25T12:10:23.083Z,90
2018-12-25T12:11:23.243Z,90
2018-12-25T12:12:22.964Z,90
2018-12-25T12:13:22.966Z,90
2018-12-25T12:14:23.213Z,90
2018-12-25T12:15:23.009Z,90
2018-12-25T12:16:22.994Z,91
2018-12-25T12:17:22.982Z,91
2018-12-25T12:18:22.842Z,91
2018-12-25T12:19:23.095Z,90
2018-12-25T12:20:23.185Z,90
2018-12-25T12:21:23.000Z,90
2018-12-25T12:22:22.947Z,90
2018-12-25T12:23:22.936Z,90
2018-12-25T12:24:22.737Z,90
2018-12-25T12:25:23.204Z,90
2018-12-25T12:26:23.543Z,90
2018-12-25T12:27:23.274Z,90
2018-12-25T12:28:22.824Z,90
2018-12-25T12:29:23.035Z,89
2018-12-25T12:30:22.990Z,89
2018-12-25T12:31:22.765Z,89
2018-12-25T12:32:23.041Z,89
2018-12-25T12:33:22.996Z,89
2018-12-25T12:34:23.280Z,89
2018-12-25T12:35:22.771Z,89
2018-12-25T12:36:23.089Z,89
2018-12-25T12:37:23.215Z,89
2018-12-25T12:38:22.994Z,89
2018-12-25T12:39:23.002Z,89
2018-12-25T12:40:23.222Z,89
2018-12-25T12:41:23.031Z,89
2018-12-25T12:42:23.244Z,89
2018-12-25T12:43:22.827Z,89
2018-12-25T12:44:23.325Z,89
2018-12-25T12:45:23.138Z,89
2018-12-25T12:46:23.291Z,89
2018-12-25T12:47:23.000Z,89
2018-12-25T12:48:22.881Z,89
2018-12-25T12:49:23.269Z,89
2018-12-25T12:50:23.229Z,89
2018-12-25T12:51:23.052Z,89
2018-12-25T12:52:23.039Z,89
2018-12-25T12:53:22.866Z,89
2018-12-25T12:54:23.235Z,89
2018-12-25T12:55:22.946Z,89
2018-12-25T12:56:23.103Z,89
2018-12-25T12:57:23.320Z,89
2018-12-25T12:58:23.350Z,89
2018-12-25T12:59:23.068Z,89
2018-12-25T13:00:23.080Z,89
2018-12-25T13:01:23.096Z,89
2018-12-25T13:02:23.272Z,89
2018-12-25T13:03:23.004Z,89
2018-12-25T13:04:23.085Z,89
2018-12-25T13:05:22.824Z,89
2018-12-25T13:06:23.290Z,89
2018-12-25T13:07:23.136Z,89
2018-12-25T13:08:23.304Z,89
2018-12-25T13:09:22.920Z,89
2018-12-25T13:10:23.237Z,88
2018-12-25T13:11:23.079Z,88
2018-12-25T13:12:23.156Z,89
2018-12-25T13:13:23.088Z,89
2018-12-25T13:14:22.939Z,89
2018-12-25T13:15:23.115Z,89
2018-12-25T13:16:23.318Z,89
2018-12-25T13:17:23.303Z,89
2018-12-25T13:18:22.939Z,89
2018-12-25T13:19:23.213Z,89
2018-12-25T13:20:22.935Z,89
2018-12-25T13:21:22.944Z,89
2018-12-25T13:22:23.201Z,89
2018-12-25T13:23:23.199Z,88
2018-12-25T13:24:24.535Z,88
2018-12-25T13:25:23.290Z,88
2018-12-25T13:26:23.091Z,88
2018-12-25T13:27:23.128Z,88
2018-12-25T13:28:23.149Z,88
2018-12-25T13:29:23.389Z,88
2018-12-25T13:30:22.913Z,88
2018-12-25T13:31:22.958Z,88
2018-12-25T13:32:23.161Z,88
2018-12-25T13:33:22.972Z,88
2018-12-25T13:34:23.533Z,88
2018-12-25T13:35:22.949Z,88
2018-12-25T13:36:23.205Z,88
2018-12-25T13:37:23.117Z,88
2018-12-25T13:38:22.945Z,88
2018-12-25T13:39:23.661Z,88
2018-12-25T13:40:23.110Z,88
2018-12-25T13:41:22.936Z,88
2018-12-25T13:42:23.004Z,88
2018-12-25T13:43:22.939Z,88
2018-12-25T13:44:23.415Z,88
2018-12-25T13:45:23.022Z,88
2018-12-25T13:46:23.327Z,88
2018-12-25T13:47:23.384Z,88
2018-12-25T13:48:23.204Z,87
2018-12-25T13:49:23.232Z,87
2018-12-25T13:50:23.160Z,87
2018-12-25T13:51:23.376Z,87
2018-12-25T13:52:23.112Z,87
2018-12-25T13:53:23.372Z,87
2018-12-25T13:54:23.218Z,87
2018-12-25T13:55:23.433Z,87
2018-12-25T13:56:23.390Z,87
2018-12-25T13:57:23.196Z,87
2018-12-25T13:58:22.979Z,87
2018-12-25T13:59:23.190Z,87
2018-12-25T14:00:23.193Z,87
2018-12-25T14:01:23.708Z,87
2018-12-25T14:02:23.965Z,87
2018-12-25T14:03:23.413Z,87
2018-12-25T14:04:23.213Z,87
2018-12-25T14:05:23.212Z,87
2018-12-25T14:06:23.498Z,87
2018-12-25T14:07:23.206Z,87
2018-12-25T14:08:23.431Z,87
2018-12-25T14:09:23.196Z,87
2018-12-25T14:10:23.353Z,87
2018-12-25T14:11:23.003Z,87
2018-12-25T14:12:23.408Z,87
2018-12-25T14:13:23.444Z,88
2018-12-25T14:14:23.276Z,88
2018-12-25T14:15:24.638Z,88
2018-12-25T14:16:22.991Z,88